Time;durP1;ratioP1;P1;durP2;ratioP2;P2;SDS_P1;SDS_P2;PMS_P1;PMS_P2;Temp;Humidity;BMP_temperature;BMP_pressure;BME280_temperature;BME280_humidity;BME280_pressure;Samples;Min_cycle;Max_cycle;Signal;HPM_P1;HPM_P2
2023/08/28 00:01:47;;;;;;;9.00;5.60;;;;;;;24.75;53.59;94864.34;5029449;28;20217;-75
2023/08/28 00:04:12;;;;;;;18.23;6.40;;;;;;;24.65;53.85;94869.81;5012486;28;20264;-74
2023/08/28 00:06:38;;;;;;;10.93;5.50;;;;;;;24.82;53.54;94870.16;5023036;28;20230;-74
2023/08/28 00:09:04;;;;;;;8.82;5.95;;;;;;;24.65;53.59;94859.13;4996249;28;20221;-75
2023/08/28 00:11:29;;;;;;;11.57;6.20;;;;;;;24.67;53.72;94859.66;5025961;28;20217;-75
2023/08/28 00:13:54;;;;;;;12.00;6.35;;;;;;;24.65;53.79;94854.56;5031913;28;20693;-75
2023/08/28 00:16:20;;;;;;;10.85;6.18;;;;;;;24.70;53.92;94856.38;5025327;28;20225;-75
2023/08/28 00:18:46;;;;;;;13.25;6.88;;;;;;;24.63;54.35;94850.56;5008334;28;20318;-75
2023/08/28 00:21:11;;;;;;;14.27;7.28;;;;;;;24.58;54.15;94848.78;5010818;28;20621;-75
2023/08/28 00:23:37;;;;;;;17.40;8.27;;;;;;;24.62;54.20;94854.34;5009190;28;20229;-75
2023/08/28 00:26:02;;;;;;;16.33;8.63;;;;;;;24.70;54.20;94851.00;5029348;28;20930;-76
2023/08/28 00:28:28;;;;;;;17.48;9.20;;;;;;;24.47;54.09;94857.22;5013788;28;20228;-74
2023/08/28 00:30:53;;;;;;;16.52;9.30;;;;;;;24.38;54.53;94857.09;4998237;28;20225;-73
2023/08/28 00:33:18;;;;;;;19.10;9.02;;;;;;;24.49;54.24;94863.09;5007667;28;20229;-75
2023/08/28 00:35:44;;;;;;;17.15;9.00;;;;;;;24.51;54.16;94853.69;5026330;28;20282;-75
2023/08/28 00:38:10;;;;;;;15.50;8.68;;;;;;;24.41;54.90;94853.81;5006711;28;20237;-75
2023/08/28 00:40:41;;;;;;;17.23;8.95;;;;;;;24.31;54.87;94853.16;5028125;28;20276;-75
2023/08/28 00:43:10;;;;;;;14.75;8.40;;;;;;;24.28;55.26;94865.22;5012024;28;20242;-74
2023/08/28 00:45:41;;;;;;;16.98;8.45;;;;;;;24.29;55.28;94876.72;4994493;28;20222;-75
2023/08/28 00:48:06;;;;;;;18.73;8.50;;;;;;;24.35;54.74;94873.69;4997965;28;20305;-74
2023/08/28 00:50:32;;;;;;;14.80;7.63;;;;;;;24.15;55.03;94881.94;4999096;28;20332;-74
2023/08/28 00:52:57;;;;;;;15.90;7.28;;;;;;;24.14;55.34;94879.56;5026401;28;20237;-75
2023/08/28 00:55:23;;;;;;;13.95;7.00;;;;;;;24.08;55.47;94878.81;5013576;28;20259;-75
2023/08/28 00:57:49;;;;;;;12.95;6.35;;;;;;;24.14;55.07;94876.91;4991885;28;20278;-75
2023/08/28 01:00:15;;;;;;;15.98;6.65;;;;;;;24.21;54.83;94880.81;5007524;28;20228;-74
2023/08/28 01:02:40;;;;;;;10.68;5.85;;;;;;;24.21;54.91;94874.66;5002410;28;20225;-75
2023/08/28 01:05:06;;;;;;;10.77;6.18;;;;;;;24.27;54.71;94860.94;5006290;28;20240;-75
2023/08/28 01:07:57;;;;;;;9.95;5.55;;;;;;;24.06;55.22;94857.72;5011825;28;20351;-74
2023/08/28 01:10:41;;;;;;;11.18;5.40;;;;;;;24.02;55.57;94854.00;5029828;28;20233;-74
2023/08/28 01:13:15;;;;;;;9.07;5.38;;;;;;;24.05;55.11;94860.63;5025461;28;20229;-75
2023/08/28 01:15:41;;;;;;;8.10;4.90;;;;;;;24.06;55.25;94856.88;5012064;28;20255;-74
2023/08/28 01:18:07;;;;;;;8.98;4.50;;;;;;;24.04;54.53;94854.50;4993351;28;20320;-75
2023/08/28 01:20:36;;;;;;;10.73;5.25;;;;;;;23.86;55.21;94860.56;5009517;28;20848;-73
2023/08/28 01:23:18;;;;;;;8.43;4.63;;;;;;;23.84;55.44;94865.41;5007781;28;20715;-74
2023/08/28 01:25:43;;;;;;;9.85;4.80;;;;;;;23.88;54.94;94871.00;5023506;28;20227;-75
2023/08/28 01:28:09;;;;;;;15.70;4.70;;;;;;;23.87;54.97;94864.84;4993233;28;20237;-73
2023/08/28 01:30:34;;;;;;;8.98;4.47;;;;;;;23.95;54.41;94872.22;5010774;28;20225;-72
2023/08/28 01:33:00;;;;;;;6.90;4.22;;;;;;;23.95;54.07;94858.09;5041710;28;20228;-74
2023/08/28 01:35:29;;;;;;;10.70;4.57;;;;;;;23.83;54.71;94857.69;5024577;28;20230;-74
2023/08/28 01:38:17;;;;;;;9.88;4.72;;;;;;;23.88;54.51;94853.06;5009780;28;21058;-73
2023/08/28 01:40:45;;;;;;;9.65;4.68;;;;;;;23.93;54.01;94853.00;5028478;28;20247;-74
2023/08/28 01:43:15;;;;;;;8.48;4.22;;;;;;;23.89;53.98;94846.66;5032482;28;20235;-74
2023/08/28 01:45:40;;;;;;;7.13;4.45;;;;;;;23.75;54.51;94855.63;5001073;28;20225;-74
2023/08/28 01:48:06;;;;;;;9.63;4.28;;;;;;;23.88;53.99;94839.69;5032573;28;20226;-73
2023/08/28 01:50:32;;;;;;;9.02;4.30;;;;;;;23.93;53.99;94842.31;4995164;28;20280;-74
2023/08/28 01:52:57;;;;;;;7.55;4.65;;;;;;;23.84;54.08;94848.56;5024782;28;20232;-73
2023/08/28 01:55:46;;;;;;;8.02;4.65;;;;;;;23.75;54.43;94835.03;5021080;28;20221;-73
2023/08/28 01:58:15;;;;;;;7.43;4.28;;;;;;;23.78;54.73;94828.31;4996402;28;20241;-73
2023/08/28 02:00:40;;;;;;;8.00;4.82;;;;;;;23.86;54.18;94830.38;5003926;28;20808;-72
2023/08/28 02:03:08;;;;;;;9.05;4.47;;;;;;;23.82;54.13;94838.16;5002730;28;20286;-73
2023/08/28 02:05:34;;;;;;;6.30;4.22;;;;;;;23.84;54.03;94830.66;5009901;28;20232;-74
2023/08/28 02:07:59;;;;;;;6.78;4.55;;;;;;;23.92;54.03;94829.25;5016883;28;20229;-74
2023/08/28 02:10:25;;;;;;;10.63;4.95;;;;;;;23.91;53.67;94833.78;5014995;28;20313;-73
2023/08/28 02:12:51;;;;;;;8.07;4.43;;;;;;;23.85;54.22;94824.25;5034791;28;20237;-74
2023/08/28 02:15:16;;;;;;;9.80;4.60;;;;;;;23.61;54.06;94820.75;5016488;28;20707;-73
2023/08/28 02:17:42;;;;;;;8.70;4.43;;;;;;;23.63;54.43;94828.47;5010580;28;20318;-75
2023/08/28 02:20:09;;;;;;;6.55;4.47;;;;;;;23.68;54.50;94825.75;5011040;28;20237;-75
2023/08/28 02:22:35;;;;;;;7.30;4.65;;;;;;;23.64;54.52;94822.88;5032221;28;20229;-73
2023/08/28 02:25:00;;;;;;;7.63;4.40;;;;;;;23.59;55.02;94825.59;5005249;28;20256;-73
2023/08/28 02:27:26;;;;;;;7.32;4.68;;;;;;;23.46;55.03;94831.56;4996624;28;20218;-73
2023/08/28 02:29:51;;;;;;;8.05;4.78;;;;;;;23.24;55.92;94829.34;5004416;28;20233;-73
2023/08/28 02:32:17;;;;;;;8.85;4.60;;;;;;;23.14;55.82;94826.75;5000277;28;20708;-72
2023/08/28 02:34:43;;;;;;;7.80;4.72;;;;;;;22.99;56.75;94820.75;5038413;28;20294;-73
2023/08/28 02:37:08;;;;;;;8.70;4.63;;;;;;;22.91;57.21;94815.97;5017518;28;20251;-74
2023/08/28 02:39:34;;;;;;;7.00;4.72;;;;;;;22.74;57.47;94819.03;5052362;28;20229;-73
2023/08/28 02:42:00;;;;;;;9.27;4.75;;;;;;;22.84;57.45;94818.16;5017075;28;20266;-74
2023/08/28 02:44:25;;;;;;;10.00;4.78;;;;;;;22.75;57.88;94821.44;5027248;28;20234;-73
2023/08/28 02:46:51;;;;;;;8.75;4.68;;;;;;;22.75;58.16;94815.31;5011723;28;20221;-73
2023/08/28 02:49:16;;;;;;;8.88;4.85;;;;;;;22.74;58.20;94808.38;5014864;28;20256;-73
2023/08/28 02:51:42;;;;;;;6.32;4.57;;;;;;;22.74;58.31;94814.50;5013693;28;20275;-73
2023/08/28 02:54:08;;;;;;;7.47;4.50;;;;;;;22.70;58.36;94810.81;5022084;28;20226;-73
2023/08/28 02:56:43;;;;;;;7.07;4.50;;;;;;;22.72;58.36;94811.31;5032792;28;20320;-72
2023/08/28 02:59:08;;;;;;;9.05;4.70;;;;;;;22.66;58.62;94809.75;5030534;28;20221;-74
2023/08/28 03:01:36;;;;;;;8.48;4.55;;;;;;;;;;4988400;28;20253;-73
2023/08/28 03:04:04;;;;;;;9.93;4.70;;;;;;;22.62;59.77;94816.72;5032187;28;20234;-73
2023/08/28 03:06:38;;;;;;;8.50;4.57;;;;;;;22.51;59.93;94812.50;5018934;28;20226;-73
2023/08/28 03:09:04;;;;;;;7.60;4.60;;;;;;;22.38;59.76;94815.75;4988975;28;20278;-73
2023/08/28 03:11:30;;;;;;;7.45;4.55;;;;;;;22.58;59.95;94817.53;5013519;28;20227;-74
2023/08/28 03:13:55;;;;;;;8.05;5.13;;;;;;;22.66;59.53;94819.66;5013920;28;20233;-75
2023/08/28 03:16:21;;;;;;;9.25;4.65;;;;;;;22.48;59.98;94814.91;5021032;28;20225;-74
2023/08/28 03:18:46;;;;;;;6.95;4.40;;;;;;;22.57;59.93;94815.94;4996947;28;20317;-74
2023/08/28 03:21:12;;;;;;;7.93;4.60;;;;;;;22.20;61.05;94813.72;5013972;28;20224;-74
2023/08/28 03:23:37;;;;;;;8.85;4.70;;;;;;;22.19;61.30;94830.78;5000419;28;20245;-74
2023/08/28 03:26:03;;;;;;;7.88;4.50;;;;;;;22.15;61.56;94829.75;4999038;28;20232;-72
2023/08/28 03:28:29;;;;;;;9.52;4.82;;;;;;;22.43;60.72;94826.41;5014935;28;20646;-73
2023/08/28 03:30:58;;;;;;;8.25;4.72;;;;;;;22.45;61.14;94829.59;4998241;28;20231;-73
2023/08/28 03:33:24;;;;;;;8.38;5.00;;;;;;;22.12;62.18;94824.97;5012714;28;20222;-73
2023/08/28 03:35:49;;;;;;;9.27;5.07;;;;;;;22.25;61.94;94824.38;4990483;28;20261;-73
2023/08/28 03:38:15;;;;;;;10.32;4.78;;;;;;;22.07;62.50;94824.97;5006869;28;20626;-74
2023/08/28 03:40:40;;;;;;;6.78;4.72;;;;;;;21.95;62.48;94825.28;5032212;28;20257;-73
2023/08/28 03:43:06;;;;;;;8.15;4.80;;;;;;;21.84;62.98;94814.91;5014002;28;20290;-73
2023/08/28 03:45:31;;;;;;;11.43;4.93;;;;;;;21.83;63.25;94813.34;5002362;28;20264;-74
2023/08/28 03:47:57;;;;;;;8.18;4.88;;;;;;;21.82;62.88;94812.53;5015551;28;20282;-75
2023/08/28 03:50:22;;;;;;;8.43;5.00;;;;;;;22.03;61.83;94808.75;5003654;28;20789;-74
2023/08/28 03:52:48;;;;;;;10.88;5.15;;;;;;;21.89;62.29;94812.25;4996660;28;20323;-74
2023/08/28 03:55:13;;;;;;;10.35;5.18;;;;;;;22.03;61.98;94818.59;5020684;28;20611;-75
2023/08/28 03:57:39;;;;;;;9.95;4.90;;;;;;;22.06;62.14;94823.41;4995373;28;20237;-74
2023/08/28 04:00:12;;;;;;;8.73;5.05;;;;;;;22.00;62.09;94819.94;5010597;28;20264;-75
2023/08/28 04:02:38;;;;;;;8.23;5.30;;;;;;;22.02;62.04;94811.66;5009489;28;20304;-75
2023/08/28 04:05:05;;;;;;;8.85;5.10;;;;;;;22.00;62.14;94819.13;5020304;28;20238;-74
2023/08/28 04:07:31;;;;;;;9.02;5.13;;;;;;;22.12;61.65;94815.09;5012621;28;20248;-75
2023/08/28 04:09:57;;;;;;;11.65;5.13;;;;;;;22.02;62.00;94817.00;5007963;28;20235;-73
2023/08/28 04:12:23;;;;;;;9.88;5.18;;;;;;;21.82;63.14;94812.53;5007029;28;20312;-74
2023/08/28 04:14:48;;;;;;;9.13;5.13;;;;;;;21.97;63.06;94825.03;5008743;28;20290;-75
2023/08/28 04:17:14;;;;;;;11.35;5.38;;;;;;;21.90;63.89;94813.88;5014258;28;20292;-74
2023/08/28 04:19:40;;;;;;;10.10;5.47;;;;;;;21.92;64.21;94817.84;5031916;28;20271;-74
2023/08/28 04:22:06;;;;;;;11.40;5.75;;;;;;;21.96;64.46;94815.44;5055866;28;20317;-74
2023/08/28 04:24:31;;;;;;;9.65;5.85;;;;;;;21.84;64.87;94812.25;4997899;28;20309;-74
2023/08/28 04:26:57;;;;;;;11.35;5.53;;;;;;;21.98;64.97;94813.28;5012156;28;20229;-75
2023/08/28 04:29:22;;;;;;;14.05;5.70;;;;;;;21.95;64.96;94813.81;5024463;28;20459;-75
2023/08/28 04:31:48;;;;;;;12.88;6.13;;;;;;;21.78;65.53;94816.78;5009624;28;20363;-73
2023/08/28 04:34:14;;;;;;;15.18;6.35;;;;;;;21.73;67.00;94821.34;5020028;28;20236;-73
2023/08/28 04:36:39;;;;;;;11.60;5.80;;;;;;;21.61;66.37;94816.31;5010979;28;20270;-72
2023/08/28 04:39:05;;;;;;;13.98;6.07;;;;;;;21.46;67.03;94821.66;5018788;28;20333;-73
2023/08/28 04:41:30;;;;;;;13.82;6.10;;;;;;;21.74;66.36;94821.06;5011621;28;20252;-73
2023/08/28 04:43:56;;;;;;;11.38;6.03;;;;;;;21.83;65.75;94821.31;5009623;28;20228;-73
2023/08/28 04:46:22;;;;;;;12.20;6.18;;;;;;;21.98;65.47;94823.94;5013047;28;20319;-74
2023/08/28 04:48:48;;;;;;;12.60;6.45;;;;;;;22.03;65.19;94824.75;4990288;28;20269;-73
2023/08/28 04:51:13;;;;;;;14.77;6.32;;;;;;;21.90;66.04;94832.53;5006502;28;20231;-73
2023/08/28 04:53:39;;;;;;;13.93;6.25;;;;;;;21.87;66.26;94833.88;5027195;28;20229;-73
2023/08/28 04:56:04;;;;;;;10.55;6.28;;;;;;;22.10;65.08;94832.44;5011922;28;20276;-73
2023/08/28 04:58:30;;;;;;;12.70;6.68;;;;;;;22.21;64.91;94833.97;5005811;28;20329;-74
2023/08/28 05:00:56;;;;;;;16.63;6.65;;;;;;;22.18;64.99;94834.53;5007235;28;20229;-73
2023/08/28 05:03:22;;;;;;;15.43;6.60;;;;;;;22.29;64.74;94833.41;5013119;28;20316;-74
2023/08/28 05:05:47;;;;;;;13.48;6.60;;;;;;;23.09;61.84;94847.38;5014648;28;20272;-72
2023/08/28 05:08:14;;;;;;;12.50;6.65;;;;;;;22.78;62.72;94831.53;5028227;28;20707;-72
2023/08/28 05:10:40;;;;;;;13.60;6.60;;;;;;;23.38;60.48;94832.22;4987057;28;20319;-73
2023/08/28 05:13:05;;;;;;;12.18;6.53;;;;;;;22.73;62.45;94834.28;4998142;28;20911;-74
2023/08/28 05:15:31;;;;;;;10.77;6.43;;;;;;;23.89;59.04;94832.47;5010756;28;20230;-74
2023/08/28 05:17:56;;;;;;;12.15;6.57;;;;;;;23.57;59.34;94822.41;5024300;28;20618;-73
2023/08/28 05:20:22;;;;;;;10.52;6.70;;;;;;;23.83;58.94;94821.06;5027449;28;20229;-73
2023/08/28 05:22:47;;;;;;;14.77;6.60;;;;;;;23.13;61.42;94811.00;5004981;28;20589;-73
2023/08/28 05:25:13;;;;;;;13.45;6.60;;;;;;;22.82;61.93;94815.78;5012494;28;20283;-73
2023/08/28 05:27:38;;;;;;;11.63;6.55;;;;;;;22.76;62.27;94815.03;5045096;28;20232;-72
2023/08/28 05:30:04;;;;;;;16.67;6.22;;;;;;;22.85;62.33;94822.44;5031406;28;20222;-73
2023/08/28 05:32:30;;;;;;;12.90;6.70;;;;;;;22.97;62.42;94813.03;5002847;28;20824;-74
2023/08/28 05:34:58;;;;;;;13.45;6.57;;;;;;;22.87;63.26;94825.63;5033913;28;20240;-74
2023/08/28 05:37:25;;;;;;;10.38;6.65;;;;;;;22.91;62.07;94822.13;5004946;28;20232;-74
2023/08/28 05:39:51;;;;;;;15.27;6.95;;;;;;;23.02;62.31;94821.00;5011908;28;20749;-74
2023/08/28 05:42:16;;;;;;;13.38;6.43;;;;;;;23.08;61.06;94819.84;5007867;28;20241;-73
2023/08/28 05:44:42;;;;;;;13.95;6.60;;;;;;;23.04;62.21;94821.50;5007695;28;20355;-73
2023/08/28 05:47:08;;;;;;;13.57;6.80;;;;;;;23.06;61.97;94815.88;5041271;28;20906;-73
2023/08/28 05:49:34;;;;;;;15.10;6.70;;;;;;;23.08;62.20;94813.72;5019588;28;20225;-74
2023/08/28 05:51:59;;;;;;;17.05;6.68;;;;;;;23.20;61.28;94806.13;5028856;28;20280;-74
2023/08/28 05:54:25;;;;;;;14.15;6.60;;;;;;;23.12;61.26;94804.88;5004762;28;20229;-74
2023/08/28 05:56:51;;;;;;;10.65;6.05;;;;;;;23.28;61.19;94808.22;5029697;28;20598;-74
2023/08/28 05:59:16;;;;;;;11.05;6.32;;;;;;;23.41;60.60;94795.03;5015541;28;20280;-73
2023/08/28 06:01:42;;;;;;;14.23;6.75;;;;;;;23.48;60.45;94802.69;5012919;28;20230;-74
2023/08/28 06:04:07;;;;;;;11.35;6.45;;;;;;;23.49;59.98;94798.97;5011372;28;20229;-73
2023/08/28 06:06:32;;;;;;;15.65;6.50;;;;;;;23.58;60.54;94799.13;5007636;28;20295;-73
2023/08/28 06:09:00;;;;;;;14.45;6.80;;;;;;;23.66;60.12;94804.66;5027091;28;20234;-73
2023/08/28 06:11:26;;;;;;;14.02;6.93;;;;;;;23.88;59.46;94802.25;4991588;28;20316;-73
2023/08/28 06:13:52;;;;;;;13.80;6.20;;;;;;;24.01;58.63;94811.47;4993034;28;20239;-73
2023/08/28 06:16:17;;;;;;;12.00;6.70;;;;;;;23.98;59.30;94804.81;5014399;28;20243;-73
2023/08/28 06:18:43;;;;;;;11.63;6.05;;;;;;;24.03;58.57;94817.34;5000832;28;20241;-73
2023/08/28 06:21:08;;;;;;;12.77;6.55;;;;;;;24.02;58.95;94821.91;5016661;28;20244;-73
2023/08/28 06:23:35;;;;;;;13.77;6.25;;;;;;;24.15;58.94;94816.94;5049162;28;20663;-73
2023/08/28 06:26:00;;;;;;;9.82;6.05;;;;;;;24.23;58.41;94824.34;5037776;28;21039;-72
2023/08/28 06:28:26;;;;;;;11.25;5.90;;;;;;;24.26;57.86;94826.47;5029121;28;20222;-73
2023/08/28 06:30:52;;;;;;;11.13;6.18;;;;;;;24.36;57.65;94827.09;5034870;28;20220;-72
2023/08/28 06:33:17;;;;;;;13.15;5.80;;;;;;;24.47;56.86;94817.88;5013970;28;20236;-74
2023/08/28 06:35:43;;;;;;;10.70;6.13;;;;;;;24.48;56.68;94816.00;4988494;28;20228;-73
2023/08/28 06:38:08;;;;;;;12.13;5.90;;;;;;;24.37;58.25;94817.22;5010679;28;20753;-73
2023/08/28 06:40:33;;;;;;;10.90;5.88;;;;;;;24.20;57.47;94823.03;5009935;28;20287;-74
2023/08/28 06:42:59;;;;;;;10.20;6.13;;;;;;;24.32;56.84;94814.59;5007815;28;20229;-73
2023/08/28 06:45:25;;;;;;;11.55;6.28;;;;;;;24.35;57.70;94814.03;5015536;28;20230;-73
2023/08/28 06:47:50;;;;;;;11.02;5.88;;;;;;;24.44;57.97;94812.28;5004016;28;20336;-73
2023/08/28 06:50:16;;;;;;;15.85;6.45;;;;;;;24.63;56.14;94813.09;5001074;28;20896;-73
2023/08/28 06:52:41;;;;;;;10.25;6.13;;;;;;;24.75;55.45;94814.25;4998173;28;20309;-74
2023/08/28 06:55:07;;;;;;;8.93;6.15;;;;;;;24.79;55.44;94811.81;5019105;28;20245;-73
2023/08/28 06:57:33;;;;;;;12.77;6.10;;;;;;;24.75;55.67;94805.44;5013010;28;20700;-74
2023/08/28 06:59:58;;;;;;;10.50;6.03;;;;;;;24.76;54.82;94817.75;5046392;28;20222;-73
2023/08/28 07:02:24;;;;;;;11.55;6.07;;;;;;;24.85;55.39;94817.91;5001085;28;20314;-74
2023/08/28 07:04:49;;;;;;;13.35;6.15;;;;;;;24.87;54.76;94813.03;5021230;28;20575;-74
2023/08/28 07:07:18;;;;;;;10.20;6.07;;;;;;;24.92;54.91;94821.00;5034427;28;20271;-74
2023/08/28 07:09:43;;;;;;;10.48;6.30;;;;;;;24.91;54.15;94820.22;5005142;28;20239;-75
2023/08/28 07:12:09;;;;;;;11.50;6.13;;;;;;;24.91;54.83;94814.84;5004966;28;20220;-74
2023/08/28 07:14:34;;;;;;;12.25;6.90;;;;;;;25.09;54.58;94808.69;5021068;28;20241;-74
2023/08/28 07:17:01;;;;;;;10.73;5.50;;;;;;;25.16;54.34;94811.00;5015120;28;20226;-74
2023/08/28 07:19:27;;;;;;;11.82;6.35;;;;;;;25.22;54.33;94818.63;5016759;28;20256;-74
2023/08/28 07:21:54;;;;;;;11.30;6.40;;;;;;;25.23;53.87;94819.44;5011429;28;20226;-74
2023/08/28 07:24:20;;;;;;;13.48;6.18;;;;;;;25.30;54.06;94817.19;5024018;28;20735;-73
2023/08/28 07:26:45;;;;;;;11.65;5.93;;;;;;;25.45;54.13;94818.84;5007386;28;20224;-75
2023/08/28 07:29:11;;;;;;;13.05;6.47;;;;;;;25.47;54.13;94822.03;5004927;28;20311;-74
2023/08/28 07:31:36;;;;;;;11.93;6.45;;;;;;;25.51;54.51;94817.69;5026407;28;20271;-74
2023/08/28 07:34:04;;;;;;;13.10;6.47;;;;;;;25.51;53.78;94818.44;5008261;28;20291;-74
2023/08/28 07:36:30;;;;;;;13.35;6.90;;;;;;;25.51;54.33;94821.13;5025173;28;20285;-75
2023/08/28 07:38:55;;;;;;;12.57;6.70;;;;;;;25.55;53.38;94816.78;5020086;28;20684;-74
2023/08/28 07:41:21;;;;;;;17.15;6.38;;;;;;;25.70;52.94;94823.75;5014762;28;20233;-72
2023/08/28 07:43:47;;;;;;;14.93;6.70;;;;;;;25.75;53.04;94818.28;5004671;28;20320;-73
2023/08/28 07:46:12;;;;;;;14.13;6.65;;;;;;;25.81;53.07;94819.78;5012821;28;20340;-73
2023/08/28 07:48:38;;;;;;;15.18;6.70;;;;;;;25.90;52.50;94812.66;5022926;28;20233;-74
2023/08/28 07:51:04;;;;;;;16.70;6.57;;;;;;;25.90;52.20;94812.66;5000924;28;20271;-74
2023/08/28 07:53:29;;;;;;;13.10;6.50;;;;;;;25.95;52.31;94824.09;5008331;28;20297;-73
2023/08/28 07:55:55;;;;;;;11.55;6.70;;;;;;;26.06;51.63;94824.66;5020979;28;20596;-73
2023/08/28 07:58:20;;;;;;;14.82;6.95;;;;;;;26.13;52.18;94821.63;5015911;28;20310;-72
2023/08/28 08:00:46;;;;;;;15.25;7.47;;;;;;;26.27;51.76;94828.56;4999849;28;20232;-74
2023/08/28 08:03:11;;;;;;;14.68;6.80;;;;;;;26.35;51.65;94822.50;4996600;28;20230;-73
2023/08/28 08:05:37;;;;;;;18.30;7.35;;;;;;;26.39;51.83;94830.75;5013405;28;20288;-75
2023/08/28 08:08:03;;;;;;;14.32;7.10;;;;;;;26.43;50.65;94832.53;5036322;28;20222;-75
2023/08/28 08:10:29;;;;;;;18.35;6.95;;;;;;;26.42;51.13;94830.94;5030916;28;20225;-75
2023/08/28 08:12:54;;;;;;;15.05;7.03;;;;;;;26.57;50.19;94825.25;5008377;28;20226;-75
2023/08/28 08:15:20;;;;;;;14.20;7.00;;;;;;;26.71;49.99;94828.69;5023251;28;20289;-73
2023/08/28 08:17:46;;;;;;;14.50;7.00;;;;;;;26.82;49.41;94836.56;5019043;28;20867;-74
2023/08/28 08:20:12;;;;;;;16.70;7.50;;;;;;;26.81;49.51;94833.09;5025899;28;20225;-74
2023/08/28 08:22:38;;;;;;;15.90;6.75;;;;;;;26.93;50.24;94827.16;5043772;28;20287;-74
2023/08/28 08:25:04;;;;;;;10.07;6.47;;;;;;;27.07;48.95;94822.53;5008814;28;20220;-75
2023/08/28 08:27:30;;;;;;;11.80;6.63;;;;;;;27.17;48.94;94822.31;4999349;28;20879;-75
2023/08/28 08:29:55;;;;;;;12.02;6.93;;;;;;;27.18;48.24;94818.50;5015211;28;20234;-74
2023/08/28 08:32:21;;;;;;;18.13;6.68;;;;;;;27.18;48.45;94818.50;5001197;28;20620;-75
2023/08/28 08:34:46;;;;;;;14.30;6.70;;;;;;;27.39;47.56;94816.94;5030620;28;20265;-75
2023/08/28 08:37:12;;;;;;;13.60;6.60;;;;;;;27.51;48.31;94817.19;5030507;28;21168;-74
2023/08/28 08:39:38;;;;;;;15.82;6.80;;;;;;;27.57;46.81;94813.25;5029670;28;20922;-75
2023/08/28 08:42:03;;;;;;;13.50;6.60;;;;;;;27.69;46.88;94818.84;5014889;28;20224;-75
2023/08/28 08:44:30;;;;;;;14.60;6.25;;;;;;;27.73;47.10;94811.75;4995605;28;20619;-75
2023/08/28 08:46:56;;;;;;;12.93;6.32;;;;;;;27.88;46.93;94810.53;5005257;28;20355;-75
2023/08/28 08:49:23;;;;;;;14.95;6.47;;;;;;;28.01;46.08;94805.09;5024601;28;20260;-74
2023/08/28 08:51:49;;;;;;;15.57;6.60;;;;;;;28.06;46.13;94806.06;5008605;28;20247;-74
2023/08/28 08:54:21;;;;;;;11.30;6.40;;;;;;;28.26;45.17;94794.72;4990735;28;20233;-75
2023/08/28 08:56:48;;;;;;;12.52;5.97;;;;;;;28.18;44.88;94793.59;5003540;28;20237;-75
2023/08/28 08:59:14;;;;;;;10.85;5.85;;;;;;;28.30;44.37;94793.00;4995649;28;20233;-76
2023/08/28 09:01:39;;;;;;;12.30;5.75;;;;;;;28.40;44.02;94787.28;4993861;28;20225;-75
2023/08/28 09:04:05;;;;;;;13.05;5.80;;;;;;;28.41;44.29;94781.63;5031921;28;20241;-73
2023/08/28 09:06:32;;;;;;;11.93;5.90;;;;;;;28.49;43.84;94780.03;5022129;28;20229;-74
2023/08/28 09:08:58;;;;;;;10.30;5.78;;;;;;;28.65;44.33;94771.22;5007246;28;20232;-74
2023/08/28 09:11:23;;;;;;;11.55;6.25;;;;;;;28.73;43.60;94774.22;5011099;28;20217;-74
2023/08/28 09:13:49;;;;;;;13.02;5.47;;;;;;;28.82;42.06;94772.31;5045104;28;20260;-75
2023/08/28 09:16:17;;;;;;;10.75;5.78;;;;;;;28.97;42.35;94766.47;5013575;28;20714;-75
2023/08/28 09:18:42;;;;;;;13.32;5.10;;;;;;;29.05;41.39;94763.75;5006665;28;20234;-74
2023/08/28 09:21:09;;;;;;;12.52;5.28;;;;;;;29.09;41.28;94758.53;5002813;28;20248;-75
2023/08/28 09:23:35;;;;;;;8.45;5.40;;;;;;;29.20;41.78;94757.09;5010047;28;20230;-73
2023/08/28 09:26:00;;;;;;;10.25;5.35;;;;;;;29.34;40.10;94755.81;5011280;28;20781;-74
2023/08/28 09:28:26;;;;;;;9.23;5.32;;;;;;;29.43;39.72;94746.88;5029113;28;20239;-74
2023/08/28 09:30:52;;;;;;;10.93;5.20;;;;;;;29.54;40.44;94740.84;5005442;28;20222;-75
2023/08/28 09:33:17;;;;;;;10.77;5.07;;;;;;;29.67;39.32;94739.03;5010295;28;20234;-74
2023/08/28 09:35:43;;;;;;;10.57;5.10;;;;;;;29.89;38.10;94733.41;5011048;28;20231;-75
2023/08/28 09:38:09;;;;;;;12.10;4.53;;;;;;;29.88;36.36;94729.13;5015395;28;20681;-75
2023/08/28 09:40:39;;;;;;;7.88;4.40;;;;;;;29.94;37.14;94733.22;5001772;28;20244;-75
2023/08/28 09:43:17;;;;;;;8.00;4.72;;;;;;;29.95;36.56;94729.41;5002657;28;20827;-77
2023/08/28 09:45:44;;;;;;;9.40;4.55;;;;;;;30.07;36.27;94734.88;5017171;28;20237;-75
2023/08/28 09:48:10;;;;;;;7.25;4.40;;;;;;;30.16;36.46;94732.94;5004016;28;20229;-74
2023/08/28 09:50:40;;;;;;;10.73;4.55;;;;;;;30.07;36.36;94718.69;4993046;28;20245;-74
2023/08/28 09:53:10;;;;;;;8.68;4.45;;;;;;;30.10;35.53;94717.25;4996117;28;20236;-74
2023/08/28 09:55:39;;;;;;;12.90;4.70;;;;;;;30.17;35.68;94709.41;5019215;28;20227;-74
2023/08/28 09:58:09;;;;;;;9.57;4.00;;;;;;;30.37;34.96;94712.19;5012764;28;20238;-77
2023/08/28 10:00:35;;;;;;;8.95;5.38;;;;;;;30.37;34.38;94706.78;5004467;28;20221;-75
2023/08/28 10:03:01;;;;;;;11.88;4.38;;;;;;;30.61;33.71;94704.22;5045072;28;20229;-75
2023/08/28 10:05:27;;;;;;;8.57;3.92;;;;;;;30.67;33.70;94698.63;5038575;28;20721;-74
2023/08/28 10:07:52;;;;;;;7.05;3.58;;;;;;;30.76;32.89;94702.03;4997243;28;20229;-74
2023/08/28 10:10:18;;;;;;;7.88;4.30;;;;;;;30.79;33.20;94702.13;5014994;28;20621;-74
2023/08/28 10:12:44;;;;;;;8.02;3.75;;;;;;;30.92;32.50;94697.59;5009575;28;20232;-76
2023/08/28 10:15:11;;;;;;;7.35;3.60;;;;;;;30.96;31.86;94698.50;5018773;28;20225;-75
2023/08/28 10:17:36;;;;;;;8.55;3.70;;;;;;;31.06;31.97;94690.00;5002122;28;20217;-75
2023/08/28 10:20:03;;;;;;;6.35;3.40;;;;;;;31.07;30.41;94688.88;5011329;28;20221;-75
2023/08/28 10:22:29;;;;;;;5.53;3.40;;;;;;;31.29;31.21;94686.56;5002799;28;20221;-76
2023/08/28 10:24:57;;;;;;;7.55;3.70;;;;;;;31.44;31.33;94682.44;5020449;28;20669;-75
2023/08/28 10:27:23;;;;;;;9.77;3.50;;;;;;;31.57;31.62;94683.25;5031945;28;20283;-74
2023/08/28 10:29:48;;;;;;;7.50;3.30;;;;;;;31.63;31.93;94676.47;5010316;28;20241;-74
2023/08/28 10:32:14;;;;;;;9.63;3.55;;;;;;;31.69;31.92;94675.91;5020717;28;20221;-73
2023/08/28 10:34:40;;;;;;;7.55;3.15;;;;;;;31.77;29.87;94680.44;5001991;28;20241;-75
2023/08/28 10:37:07;;;;;;;7.25;2.97;;;;;;;31.88;29.64;94673.41;4997843;28;20243;-75
2023/08/28 10:39:32;;;;;;;5.32;3.08;;;;;;;31.95;29.51;94675.59;5004307;28;20716;-75
2023/08/28 10:41:58;;;;;;;6.85;3.30;;;;;;;31.92;30.01;94660.81;4988876;28;20219;-74
2023/08/28 10:44:24;;;;;;;5.70;3.42;;;;;;;31.92;31.01;94663.50;5023829;28;20288;-75
2023/08/28 10:46:51;;;;;;;10.27;3.85;;;;;;;32.04;30.82;94662.72;4989914;28;20244;-74
2023/08/28 10:49:17;;;;;;;8.10;3.80;;;;;;;32.06;30.20;94656.97;5016872;28;20325;-74
2023/08/28 10:51:44;;;;;;;13.98;5.90;;;;;;;32.09;29.90;94656.28;5004128;28;20334;-75
2023/08/28 10:54:10;;;;;;;6.70;4.10;;;;;;;32.05;31.70;94648.06;5039908;28;20236;-75
2023/08/28 10:56:37;;;;;;;6.35;3.70;;;;;;;32.05;30.57;94647.28;5012067;28;20224;-75
2023/08/28 10:59:24;;;;;;;5.88;3.70;;;;;;;32.11;30.52;94637.78;5012164;28;20246;-74
2023/08/28 11:01:54;;;;;;;7.78;3.70;;;;;;;32.22;30.54;94642.38;5024979;28;20229;-73
2023/08/28 11:04:20;;;;;;;6.68;3.75;;;;;;;32.28;30.85;94637.50;5010202;28;20232;-73
2023/08/28 11:06:46;;;;;;;11.93;4.00;;;;;;;32.40;30.79;94634.78;5016362;28;20320;-74
2023/08/28 11:09:30;;;;;;;9.88;3.83;;;;;;;32.56;31.02;94630.22;5001660;28;20734;-74
2023/08/28 11:12:01;;;;;;;8.02;4.13;;;;;;;32.67;30.39;94638.66;5026035;28;20745;-73
2023/08/28 11:14:31;;;;;;;5.88;3.90;;;;;;;32.72;30.85;94625.63;5017951;28;20229;-74
2023/08/28 11:17:15;;;;;;;8.63;4.00;;;;;;;32.72;31.07;94614.00;5016694;28;20246;-73
2023/08/28 11:19:55;;;;;;;9.07;3.60;;;;;;;32.66;30.51;94624.31;5012051;28;20346;-74
2023/08/28 11:22:40;;;;;;;8.88;4.65;;;;;;;32.76;31.40;94612.97;5030566;28;20797;-72
2023/08/28 11:25:12;;;;;;;11.75;4.90;;;;;;;32.88;31.78;94606.69;5008817;28;20702;-73
2023/08/28 11:27:50;;;;;;;9.55;4.10;;;;;;;32.86;30.72;94608.97;5009063;28;20274;-74